Time;durP1;ratioP1;P1;durP2;ratioP2;P2;SDS_P1;SDS_P2;PMS_P1;PMS_P2;Temp;Humidity;BMP_temperature;BMP_pressure;BME280_temperature;BME280_humidity;BME280_pressure;Samples;Min_cycle;Max_cycle;Signal;HPM_P1;HPM_P2
2022/07/18 00:00:46;;;;;;;3.95;2.03;;;19.20;63.80;;;;;;2087779;28;20106;-68
2022/07/18 00:01:47;;;;;;;5.80;1.90;;;19.20;64.30;;;;;;2084212;28;20051;-68
2022/07/18 00:02:48;;;;;;;4.10;1.60;;;19.20;64.70;;;;;;2088018;28;20566;-68
2022/07/18 00:03:48;;;;;;;2.92;1.63;;;19.20;64.90;;;;;;2088449;28;20422;-68
2022/07/18 00:04:49;;;;;;;3.53;1.73;;;19.20;65.00;;;;;;2086598;28;20017;-68
2022/07/18 00:05:49;;;;;;;2.30;1.48;;;19.20;65.30;;;;;;2084595;28;20026;-68
2022/07/18 00:06:50;;;;;;;2.00;1.75;;;19.10;65.40;;;;;;2086861;28;20599;-68
2022/07/18 00:07:51;;;;;;;4.15;2.20;;;19.10;65.80;;;;;;2086284;28;20049;-68
2022/07/18 00:08:52;;;;;;;2.13;1.55;;;19.10;65.30;;;;;;2084828;28;20021;-68
2022/07/18 00:09:54;;;;;;;3.55;1.90;;;19.00;66.00;;;;;;2082715;28;20480;-68
2022/07/18 00:10:54;;;;;;;3.67;1.80;;;19.00;66.40;;;;;;2087688;28;20032;-68
2022/07/18 00:11:55;;;;;;;2.83;1.75;;;19.00;66.60;;;;;;2086444;28;20055;-68
2022/07/18 00:12:55;;;;;;;2.75;1.80;;;19.00;67.00;;;;;;2087347;28;20037;-68
2022/07/18 00:13:56;;;;;;;2.67;1.52;;;19.00;67.30;;;;;;2088118;28;20456;-68
2022/07/18 00:14:57;;;;;;;2.80;1.75;;;19.00;67.10;;;;;;2086446;28;20057;-68
2022/07/18 00:15:58;;;;;;;3.00;1.77;;;18.90;66.80;;;;;;2091239;28;20017;-68
2022/07/18 00:16:59;;;;;;;3.75;1.90;;;18.90;67.10;;;;;;2086975;28;20032;-68
2022/07/18 00:17:59;;;;;;;4.43;1.70;;;18.90;67.10;;;;;;2087191;28;20416;-68
2022/07/18 00:19:00;;;;;;;3.42;1.65;;;18.80;67.50;;;;;;2087284;28;20047;-68
2022/07/18 00:20:00;;;;;;;3.80;2.03;;;18.80;68.00;;;;;;2086727;28;20031;-68
2022/07/18 00:21:01;;;;;;;3.50;1.80;;;18.80;67.60;;;;;;2085618;28;20023;-68
2022/07/18 00:22:03;;;;;;;4.85;1.65;;;18.80;68.20;;;;;;2085446;28;20071;-68
2022/07/18 00:23:04;;;;;;;4.55;1.80;;;18.80;68.00;;;;;;2086941;28;20025;-68
2022/07/18 00:24:04;;;;;;;4.63;1.90;;;18.70;67.60;;;;;;2085172;28;20025;-68
2022/07/18 00:25:06;;;;;;;3.33;1.73;;;18.70;68.40;;;;;;2086695;28;20549;-68
2022/07/18 00:26:06;;;;;;;3.70;1.88;;;18.70;68.40;;;;;;2083552;28;20080;-68
2022/07/18 00:27:07;;;;;;;2.58;1.73;;;18.70;69.00;;;;;;2086423;28;20538;-68
2022/07/18 00:28:08;;;;;;;2.55;1.75;;;18.70;69.50;;;;;;2085962;28;20056;-68
2022/07/18 00:29:09;;;;;;;3.35;1.80;;;18.70;69.50;;;;;;2086288;28;20116;-68
2022/07/18 00:30:10;;;;;;;2.78;1.63;;;18.60;69.80;;;;;;2084683;28;20033;-68
2022/07/18 00:31:11;;;;;;;3.45;1.60;;;18.60;70.00;;;;;;2085551;28;20052;-68
2022/07/18 00:32:11;;;;;;;3.95;2.00;;;18.60;70.10;;;;;;2085039;28;20021;-68
2022/07/18 00:33:12;;;;;;;1.92;1.77;;;18.50;69.90;;;;;;2086646;28;20025;-68
2022/07/18 00:34:13;;;;;;;5.10;1.73;;;18.60;70.50;;;;;;2083905;28;20029;-68
2022/07/18 00:35:13;;;;;;;3.63;1.73;;;18.50;71.00;;;;;;2083240;28;20439;-68
2022/07/18 00:36:14;;;;;;;2.63;1.80;;;18.50;70.70;;;;;;2087398;28;20036;-68
2022/07/18 00:37:15;;;;;;;2.65;2.03;;;18.50;70.50;;;;;;2083717;28;20477;-68
2022/07/18 00:38:15;;;;;;;2.67;1.60;;;18.40;70.70;;;;;;2084154;28;20036;-68
2022/07/18 00:39:16;;;;;;;2.70;1.92;;;18.40;70.40;;;;;;2084065;28;20517;-68
2022/07/18 00:40:16;;;;;;;1.73;1.48;;;18.40;71.30;;;;;;2084590;28;20493;-68
2022/07/18 00:41:17;;;;;;;2.60;1.85;;;18.40;71.50;;;;;;2084567;28;20032;-68
2022/07/18 00:42:19;;;;;;;2.92;1.60;;;18.40;71.90;;;;;;2084311;28;20069;-68
2022/07/18 00:43:20;;;;;;;3.17;1.70;;;18.40;71.90;;;;;;2085784;28;20037;-68
2022/07/18 00:44:24;;;;;;;2.45;1.80;;;18.30;72.30;;;;;;2085051;28;20116;-68
2022/07/18 00:45:25;;;;;;;3.28;1.60;;;18.30;72.50;;;;;;2084367;28;20055;-68
2022/07/18 00:46:27;;;;;;;3.33;1.60;;;18.20;72.40;;;;;;2087014;28;20033;-68
2022/07/18 00:47:27;;;;;;;2.95;1.50;;;18.20;72.40;;;;;;2083607;28;20024;-68
2022/07/18 00:48:28;;;;;;;2.55;1.52;;;18.20;73.00;;;;;;2087340;28;20083;-68
2022/07/18 00:49:29;;;;;;;3.03;1.58;;;18.20;72.60;;;;;;2085861;28;20024;-68
2022/07/18 00:50:30;;;;;;;4.22;1.83;;;18.20;73.80;;;;;;2085422;28;20529;-68
2022/07/18 00:51:30;;;;;;;2.60;1.80;;;18.20;73.90;;;;;;2084203;28;20405;-68
2022/07/18 00:52:31;;;;;;;3.05;1.77;;;18.10;73.90;;;;;;2083232;28;20035;-68
2022/07/18 00:53:32;;;;;;;4.47;1.80;;;18.10;74.40;;;;;;2083900;28;20025;-68
2022/07/18 00:54:33;;;;;;;3.45;1.73;;;18.10;74.20;;;;;;2083567;28;20052;-68
2022/07/18 00:55:34;;;;;;;3.58;1.42;;;18.10;75.10;;;;;;2084279;28;20026;-68
2022/07/18 00:56:34;;;;;;;3.80;1.98;;;18.10;74.60;;;;;;2083386;28;20028;-68
2022/07/18 00:57:37;;;;;;;2.28;1.63;;;18.10;74.30;;;;;;2084541;28;20116;-68
2022/07/18 00:58:38;;;;;;;3.28;1.88;;;18.10;75.20;;;;;;2084667;28;20032;-68
2022/07/18 01:02:18;;;;;;;6.47;1.88;;;18.00;76.50;;;;;;2087939;28;20037;-68
2022/07/18 01:03:19;;;;;;;2.00;1.60;;;17.90;75.90;;;;;;2086594;28;20496;-68
2022/07/18 01:04:22;;;;;;;3.22;1.70;;;17.90;76.70;;;;;;2087769;28;20073;-68
2022/07/18 01:05:23;;;;;;;3.50;1.95;;;17.90;77.30;;;;;;2083910;28;20500;-68
2022/07/18 01:06:24;;;;;;;3.47;1.90;;;17.80;78.10;;;;;;2084533;28;20794;-68
2022/07/18 01:07:24;;;;;;;2.78;1.50;;;17.90;78.60;;;;;;2083652;28;20025;-68
2022/07/18 01:08:25;;;;;;;3.92;1.80;;;17.90;78.70;;;;;;2084348;28;20105;-68
2022/07/18 01:09:26;;;;;;;4.60;1.88;;;17.80;77.90;;;;;;2083888;28;20030;-68
2022/07/18 01:10:26;;;;;;;3.35;1.73;;;17.80;77.80;;;;;;2085783;28;20021;-68
2022/07/18 01:11:27;;;;;;;3.80;1.73;;;17.80;78.50;;;;;;2083496;28;20047;-68
2022/07/18 01:12:27;;;;;;;2.45;1.80;;;17.80;79.40;;;;;;2084986;28;20136;-68
2022/07/18 01:13:28;;;;;;;3.67;1.77;;;17.80;79.50;;;;;;2085076;28;20048;-68
2022/07/18 01:14:30;;;;;;;1.50;1.40;;;17.80;80.40;;;;;;2084789;28;20536;-68
2022/07/18 01:15:30;;;;;;;5.47;1.70;;;17.70;81.30;;;;;;2083722;28;20076;-68
2022/07/18 01:16:32;;;;;;;2.70;1.70;;;17.70;80.40;;;;;;2086632;28;20025;-68
2022/07/18 01:17:33;;;;;;;1.73;1.50;;;17.70;80.50;;;;;;2086040;28;20032;-68
2022/07/18 01:18:33;;;;;;;3.60;1.55;;;17.70;81.00;;;;;;2084898;28;20033;-68
2022/07/18 01:19:36;;;;;;;1.65;1.33;;;17.70;82.00;;;;;;2086330;28;20052;-68
2022/07/18 01:20:36;;;;;;;1.65;1.30;;;17.60;80.90;;;;;;2083513;28;20041;-68
2022/07/18 01:21:37;;;;;;;3.25;1.60;;;17.60;80.80;;;;;;2084453;28;20021;-68
2022/07/18 01:22:41;;;;;;;2.88;1.75;;;17.60;81.80;;;;;;2082828;28;20029;-68
2022/07/18 01:23:43;;;;;;;2.00;1.58;;;17.60;82.50;;;;;;2082528;28;20036;-68
2022/07/18 01:24:44;;;;;;;3.15;1.67;;;17.60;82.80;;;;;;2083343;28;20016;-68
2022/07/18 01:25:44;;;;;;;3.70;1.80;;;17.60;81.50;;;;;;2085719;28;20026;-68
2022/07/18 01:26:45;;;;;;;2.42;1.67;;;17.60;81.60;;;;;;2085740;28;20026;-68
2022/07/18 01:27:46;;;;;;;4.30;1.80;;;17.60;81.50;;;;;;2084777;28;20041;-68
2022/07/18 01:28:46;;;;;;;2.70;1.73;;;17.50;82.10;;;;;;2084562;28;20025;-68
2022/07/18 01:29:49;;;;;;;2.53;1.65;;;17.50;82.80;;;;;;2082383;28;20025;-68
2022/07/18 01:30:49;;;;;;;3.63;1.60;;;17.50;83.50;;;;;;2082152;28;20480;-68
2022/07/18 01:31:50;;;;;;;2.30;1.70;;;17.50;82.90;;;;;;2079979;28;20385;-68
2022/07/18 01:32:58;;;;;;;2.58;1.40;;;17.50;83.90;;;;;;2081517;28;20100;-68
2022/07/18 01:34:00;;;;;;;2.83;1.75;;;17.50;84.60;;;;;;2083228;28;20048;-68
2022/07/18 01:35:00;;;;;;;3.35;1.85;;;17.40;84.30;;;;;;2087229;28;20029;-68
2022/07/18 01:36:02;;;;;;;2.88;1.80;;;17.40;84.70;;;;;;2085788;28;20078;-68
2022/07/18 01:37:04;;;;;;;3.53;1.50;;;17.40;84.50;;;;;;2082791;28;20022;-68
2022/07/18 01:38:04;;;;;;;2.80;1.95;;;17.40;84.70;;;;;;2086462;28;20373;-68
2022/07/18 01:39:05;;;;;;;2.38;1.52;;;17.40;84.80;;;;;;2081924;28;20777;-68
2022/07/18 01:40:10;;;;;;;2.83;1.67;;;17.40;85.00;;;;;;2083787;28;20022;-68
2022/07/18 01:41:11;;;;;;;3.17;1.60;;;17.40;86.90;;;;;;2082209;28;20033;-68
2022/07/18 01:42:12;;;;;;;7.72;1.83;;;17.30;87.50;;;;;;2085425;28;20044;-68
2022/07/18 01:43:13;;;;;;;2.25;1.58;;;17.30;88.10;;;;;;2086622;28;20064;-68
2022/07/18 01:44:13;;;;;;;3.67;1.90;;;17.30;88.20;;;;;;2085438;28;20033;-68
2022/07/18 01:45:15;;;;;;;1.77;1.50;;;17.30;88.70;;;;;;2082306;28;20028;-68
2022/07/18 01:46:16;;;;;;;2.25;1.55;;;17.30;89.70;;;;;;2085315;28;20032;-68
2022/07/18 01:47:17;;;;;;;3.80;1.88;;;17.30;88.40;;;;;;2083602;28;20029;-68
2022/07/18 01:48:18;;;;;;;2.17;1.50;;;17.30;88.70;;;;;;2083961;28;20017;-68
2022/07/18 01:49:20;;;;;;;2.63;1.85;;;17.20;89.90;;;;;;2082698;28;20045;-68
2022/07/18 01:50:20;;;;;;;2.22;1.70;;;17.20;90.00;;;;;;2087498;28;20108;-68
2022/07/18 01:51:21;;;;;;;2.03;1.73;;;17.20;89.80;;;;;;2087845;28;20025;-68
2022/07/18 01:52:21;;;;;;;2.50;1.92;;;17.20;89.60;;;;;;2086110;28;20025;-68
2022/07/18 01:53:24;;;;;;;3.28;1.42;;;17.20;89.60;;;;;;2086191;28;20018;-68
2022/07/18 01:54:30;;;;;;;2.65;1.70;;;17.20;90.00;;;;;;2086445;28;20032;-68
2022/07/18 01:55:31;;;;;;;1.63;1.33;;;17.20;90.10;;;;;;2083999;28;20017;-68
2022/07/18 01:56:32;;;;;;;2.50;1.92;;;17.10;90.20;;;;;;2085587;28;20108;-68
2022/07/18 01:57:32;;;;;;;2.95;1.83;;;17.10;90.70;;;;;;2084613;28;20036;-68
2022/07/18 01:58:33;;;;;;;4.38;1.63;;;17.10;91.10;;;;;;2084931;28;20021;-68
2022/07/18 01:59:35;;;;;;;1.85;1.50;;;17.10;91.20;;;;;;2087556;28;20166;-68
2022/07/18 02:00:35;;;;;;;3.42;1.70;;;17.10;91.30;;;;;;2084126;28;20014;-68
2022/07/18 02:01:36;;;;;;;3.03;1.80;;;17.10;90.80;;;;;;2086151;28;20137;-68
2022/07/18 02:02:37;;;;;;;3.92;1.90;;;17.10;90.50;;;;;;2084996;28;20029;-68
2022/07/18 02:03:38;;;;;;;4.82;1.67;;;17.10;89.70;;;;;;2082805;28;20028;-68
2022/07/18 02:05:58;;;;;;;1.80;1.60;;;17.00;90.90;;;;;;2086446;28;20025;-68
2022/07/18 02:06:59;;;;;;;2.70;1.60;;;17.00;90.80;;;;;;2089808;28;20029;-68
2022/07/18 02:08:00;;;;;;;1.75;1.42;;;17.00;91.00;;;;;;2089230;28;20021;-68
2022/07/18 02:09:00;;;;;;;1.88;1.52;;;17.00;90.80;;;;;;2084282;28;20388;-68
2022/07/18 02:10:07;;;;;;;2.95;1.52;;;17.00;91.40;;;;;;2086166;28;20033;-68
2022/07/18 02:11:08;;;;;;;3.22;1.80;;;17.00;91.70;;;;;;2084437;28;20036;-68
2022/07/18 02:12:08;;;;;;;3.30;1.80;;;17.00;92.10;;;;;;2084664;28;20104;-68
2022/07/18 02:13:09;;;;;;;2.90;1.92;;;16.90;92.30;;;;;;2084581;28;20044;-68
2022/07/18 02:14:09;;;;;;;3.40;1.70;;;16.90;92.90;;;;;;2082990;28;20040;-68
2022/07/18 02:15:12;;;;;;;2.72;1.73;;;16.90;93.20;;;;;;2083102;28;20028;-68
2022/07/18 02:16:12;;;;;;;2.55;1.52;;;16.90;93.50;;;;;;2083677;28;20036;-68
2022/07/18 02:17:13;;;;;;;1.67;1.30;;;16.90;93.90;;;;;;2084788;28;20052;-68
2022/07/18 02:18:14;;;;;;;4.13;1.70;;;16.90;93.70;;;;;;2085264;28;20524;-68
2022/07/18 02:19:14;;;;;;;4.38;1.77;;;16.90;93.90;;;;;;2085866;28;20048;-68
2022/07/18 02:20:15;;;;;;;4.38;1.73;;;16.90;94.40;;;;;;2085961;28;20052;-68
2022/07/18 02:21:16;;;;;;;1.63;1.38;;;16.80;93.60;;;;;;2086873;28;20111;-68
2022/07/18 02:22:17;;;;;;;2.80;1.42;;;16.80;93.50;;;;;;2087271;28;20159;-68
2022/07/18 02:23:17;;;;;;;3.42;1.75;;;16.80;93.20;;;;;;2086039;28;20087;-68
2022/07/18 02:24:18;;;;;;;4.05;1.75;;;16.80;93.80;;;;;;2083616;28;20017;-68
2022/07/18 02:25:19;;;;;;;3.15;1.80;;;16.80;93.90;;;;;;2086182;28;20451;-68
2022/07/18 02:26:19;;;;;;;1.75;1.50;;;16.80;93.60;;;;;;2082220;28;20021;-68
2022/07/18 02:27:20;;;;;;;3.90;1.60;;;16.80;93.60;;;;;;2082401;28;20085;-68
2022/07/18 02:28:21;;;;;;;5.03;1.88;;;16.80;94.30;;;;;;2083943;28;20025;-68
2022/07/18 02:29:22;;;;;;;3.10;2.00;;;16.80;94.60;;;;;;2083037;28;20021;-68
2022/07/18 02:30:22;;;;;;;2.78;1.77;;;16.70;94.90;;;;;;2084957;28;20016;-68
2022/07/18 02:31:23;;;;;;;2.88;1.80;;;16.70;94.70;;;;;;2085573;28;20101;-68
2022/07/18 02:32:24;;;;;;;3.72;1.75;;;16.70;95.20;;;;;;2084709;28;20520;-68
2022/07/18 02:33:24;;;;;;;4.78;1.83;;;16.70;95.60;;;;;;2084413;28;20392;-68
2022/07/18 02:34:25;;;;;;;2.88;1.88;;;16.70;95.20;;;;;;2084131;28;20032;-68
2022/07/18 02:35:26;;;;;;;2.92;1.40;;;16.70;95.10;;;;;;2084499;28;20025;-68
2022/07/18 02:36:26;;;;;;;2.72;1.65;;;16.70;95.30;;;;;;2085562;28;20069;-68
2022/07/18 02:37:27;;;;;;;3.95;1.98;;;16.60;95.10;;;;;;2084096;28;20473;-68
2022/07/18 02:38:27;;;;;;;2.45;1.77;;;16.70;95.40;;;;;;2085411;28;20032;-68
2022/07/18 02:39:28;;;;;;;3.45;1.85;;;16.60;95.20;;;;;;2082752;28;20167;-68
2022/07/18 02:40:29;;;;;;;1.98;1.60;;;16.60;95.30;;;;;;2085670;28;20474;-68
2022/07/18 02:41:29;;;;;;;3.15;2.05;;;16.60;95.30;;;;;;2082671;28;20147;-68
2022/07/18 02:42:30;;;;;;;2.95;1.92;;;16.60;96.10;;;;;;2086754;28;20029;-68
2022/07/18 02:43:31;;;;;;;2.25;1.77;;;16.60;96.50;;;;;;2082513;28;20053;-68
2022/07/18 02:44:31;;;;;;;2.85;1.70;;;16.60;96.80;;;;;;2083469;28;20029;-68
2022/07/18 02:45:32;;;;;;;3.13;1.30;;;16.60;96.70;;;;;;2082919;28;20025;-68
2022/07/18 02:46:33;;;;;;;2.20;1.65;;;16.60;96.00;;;;;;2083150;28;20037;-68
2022/07/18 02:47:33;;;;;;;3.80;1.63;;;16.50;95.90;;;;;;2084227;28;20396;-68
2022/07/18 02:48:34;;;;;;;2.72;1.92;;;16.60;96.40;;;;;;2084148;28;20029;-68
2022/07/18 02:49:34;;;;;;;2.40;1.60;;;16.50;96.10;;;;;;2084430;28;20035;-68
2022/07/18 02:50:35;;;;;;;1.63;1.50;;;16.50;96.70;;;;;;2083364;28;20024;-68
2022/07/18 02:51:36;;;;;;;3.25;1.83;;;16.50;97.30;;;;;;2085011;28;20493;-68
2022/07/18 02:52:38;;;;;;;2.30;1.75;;;16.50;98.00;;;;;;2083073;28;20028;-68
2022/07/18 02:53:39;;;;;;;5.30;2.03;;;16.50;98.20;;;;;;2083968;28;20039;-69
2022/07/18 02:54:39;;;;;;;2.92;1.80;;;16.40;98.10;;;;;;2085775;28;20021;-68
2022/07/18 02:55:40;;;;;;;3.50;1.60;;;16.50;97.50;;;;;;2085963;28;20392;-68
2022/07/18 02:56:40;;;;;;;2.47;1.95;;;16.40;96.80;;;;;;2084816;28;20036;-68
2022/07/18 02:57:42;;;;;;;2.65;1.70;;;16.40;97.90;;;;;;2085021;28;20025;-68
2022/07/18 02:58:42;;;;;;;3.88;1.98;;;16.40;97.70;;;;;;2083890;28;20029;-68
2022/07/18 02:59:43;;;;;;;2.35;1.77;;;16.40;98.20;;;;;;2082218;28;20452;-68
2022/07/18 03:00:44;;;;;;;3.80;1.90;;;16.40;98.40;;;;;;2082203;28;20476;-68
2022/07/18 03:01:45;;;;;;;2.67;1.92;;;16.40;98.20;;;;;;2084511;28;20025;-68
2022/07/18 03:02:46;;;;;;;4.43;2.10;;;16.40;98.10;;;;;;2084259;28;20079;-68
2022/07/18 03:03:46;;;;;;;3.97;1.67;;;16.40;98.80;;;;;;2083706;28;20037;-68
2022/07/18 03:04:47;;;;;;;2.47;1.48;;;16.40;99.70;;;;;;2083633;28;20018;-68
2022/07/18 03:05:47;;;;;;;2.67;1.63;;;16.30;98.80;;;;;;2084105;28;20408;-68
2022/07/18 03:06:49;;;;;;;2.72;1.85;;;16.30;99.30;;;;;;2083716;28;20496;-68
2022/07/18 03:07:49;;;;;;;5.53;1.98;;;16.30;99.20;;;;;;2084075;28;20499;-68
2022/07/18 03:08:50;;;;;;;5.32;1.90;;;16.30;99.70;;;;;;2083300;28;20396;-68
2022/07/18 03:09:51;;;;;;;2.80;1.55;;;16.30;99.30;;;;;;2086577;28;20095;-68
2022/07/18 03:10:51;;;;;;;2.30;2.05;;;16.30;99.00;;;;;;2086117;28;20502;-68
2022/07/18 03:11:55;;;;;;;5.03;1.83;;;16.30;99.20;;;;;;2083509;28;20374;-68
2022/07/18 03:12:56;;;;;;;3.72;2.10;;;16.30;99.90;;;;;;2084205;28;20389;-68
2022/07/18 03:13:56;;;;;;;7.18;2.30;;;16.20;99.90;;;;;;2085442;28;20052;-68
2022/07/18 03:14:57;;;;;;;4.03;2.15;;;16.30;99.90;;;;;;2083664;28;20040;-68
2022/07/18 03:15:58;;;;;;;3.40;1.70;;;16.20;99.90;;;;;;2080928;28;20037;-68
2022/07/18 03:16:58;;;;;;;4.95;1.80;;;16.20;99.90;;;;;;2083371;28;20030;-68
2022/07/18 03:17:59;;;;;;;6.53;2.20;;;16.20;99.90;;;;;;2083012;28;20057;-68
2022/07/18 03:19:00;;;;;;;4.07;1.85;;;16.20;99.90;;;;;;2084435;28;20071;-68
2022/07/18 03:20:00;;;;;;;2.85;1.92;;;16.20;99.90;;;;;;2084134;28;20018;-68
2022/07/18 03:21:01;;;;;;;3.53;2.20;;;16.20;99.90;;;;;;2083716;28;20047;-68
2022/07/18 03:22:03;;;;;;;2.30;1.83;;;16.20;99.90;;;;;;2082419;28;20017;-68
2022/07/18 03:23:08;;;;;;;2.65;1.75;;;16.20;99.90;;;;;;2084355;28;20107;-68
2022/07/18 03:24:10;;;;;;;3.65;2.30;;;16.20;99.90;;;;;;2082107;28;20029;-68
2022/07/18 03:25:11;;;;;;;3.03;2.10;;;16.20;99.90;;;;;;2084197;28;20083;-68
2022/07/18 03:26:11;;;;;;;3.63;1.48;;;16.10;99.90;;;;;;2084573;28;20032;-68
2022/07/18 03:27:12;;;;;;;2.17;1.63;;;16.10;99.90;;;;;;2085300;28;20029;-68
2022/07/18 03:28:12;;;;;;;3.30;1.80;;;16.10;99.90;;;;;;2086631;28;20017;-68
2022/07/18 03:29:13;;;;;;;2.88;1.83;;;16.10;99.90;;;;;;2086318;28;20400;-68
2022/07/18 03:30:14;;;;;;;3.55;2.15;;;16.10;99.90;;;;;;2086252;28;20520;-68
2022/07/18 03:31:14;;;;;;;4.13;1.90;;;16.10;99.90;;;;;;2082706;28;20416;-68
2022/07/18 03:32:15;;;;;;;2.70;1.70;;;16.10;99.90;;;;;;2082377;28;20028;-68
2022/07/18 03:33:16;;;;;;;2.17;1.75;;;16.10;99.90;;;;;;2087076;28;20075;-68
2022/07/18 03:34:16;;;;;;;3.40;2.08;;;16.10;99.90;;;;;;2084074;28;20040;-68
2022/07/18 03:35:17;;;;;;;2.40;1.83;;;16.10;99.90;;;;;;2087841;28;20029;-68
2022/07/18 03:36:17;;;;;;;3.17;1.75;;;16.10;99.90;;;;;;2086938;28;20033;-68
2022/07/18 03:37:18;;;;;;;3.83;2.15;;;16.10;99.90;;;;;;2086957;28;20139;-68
2022/07/18 03:38:19;;;;;;;1.55;1.45;;;16.10;99.90;;;;;;2084595;28;20025;-68
2022/07/18 03:39:19;;;;;;;7.00;2.40;;;16.10;99.90;;;;;;2082389;28;20029;-68
2022/07/18 03:40:20;;;;;;;2.72;1.77;;;16.10;99.90;;;;;;2088044;28;20441;-68
2022/07/18 03:41:21;;;;;;;2.50;2.08;;;16.10;99.90;;;;;;2084665;28;20029;-68
2022/07/18 03:42:21;;;;;;;13.45;2.70;;;16.10;99.90;;;;;;2086921;28;20029;-68
2022/07/18 03:43:22;;;;;;;3.30;2.22;;;16.10;99.90;;;;;;2088191;28;20493;-68
2022/07/18 03:44:22;;;;;;;5.63;2.35;;;16.10;99.90;;;;;;2085972;28;20049;-68
2022/07/18 03:45:23;;;;;;;2.50;1.77;;;16.10;99.90;;;;;;2085351;28;20083;-68
2022/07/18 03:46:24;;;;;;;3.00;2.08;;;16.00;99.90;;;;;;2087033;28;20017;-68
2022/07/18 03:47:24;;;;;;;6.95;2.40;;;16.00;99.90;;;;;;2084088;28;20037;-68
2022/07/18 03:48:25;;;;;;;4.03;2.03;;;16.00;99.90;;;;;;2085578;28;20032;-68
2022/07/18 03:49:26;;;;;;;3.58;1.73;;;16.10;99.90;;;;;;2084923;28;20045;-68
2022/07/18 03:50:27;;;;;;;4.43;2.03;;;16.10;99.90;;;;;;2086712;28;20516;-68
2022/07/18 03:51:27;;;;;;;4.32;1.45;;;16.10;99.90;;;;;;2085581;28;20025;-68
2022/07/18 03:52:28;;;;;;;5.28;2.10;;;16.10;99.90;;;;;;2084393;28;20017;-68
2022/07/18 03:53:29;;;;;;;4.18;2.20;;;16.10;99.90;;;;;;2085337;28;20109;-68
2022/07/18 03:54:30;;;;;;;3.80;2.42;;;16.10;99.90;;;;;;2086335;28;20047;-68
2022/07/18 03:55:31;;;;;;;2.45;1.90;;;16.00;99.90;;;;;;2084933;28;20033;-68
2022/07/18 03:56:31;;;;;;;3.08;2.08;;;16.10;99.90;;;;;;2087519;28;20086;-68
2022/07/18 03:57:32;;;;;;;3.25;2.28;;;16.10;99.90;;;;;;2086235;28;20022;-68
2022/07/18 03:58:33;;;;;;;3.20;1.80;;;16.10;99.90;;;;;;2087100;28;20040;-68
2022/07/18 03:59:35;;;;;;;2.92;1.98;;;16.00;99.90;;;;;;2089130;28;20028;-68
2022/07/18 04:00:36;;;;;;;3.58;2.15;;;16.10;99.90;;;;;;2087486;28;20036;-68
2022/07/18 04:01:37;;;;;;;4.07;2.08;;;16.10;99.90;;;;;;2085913;28;20083;-68
2022/07/18 04:02:45;;;;;;;6.00;2.58;;;16.10;99.90;;;;;;2083099;28;20079;-68
2022/07/18 04:03:46;;;;;;;2.15;1.95;;;16.10;99.90;;;;;;2083257;28;20110;-68
2022/07/18 04:04:46;;;;;;;6.00;2.42;;;16.10;99.90;;;;;;2086156;28;20025;-68
2022/07/18 04:05:47;;;;;;;3.17;2.30;;;16.10;99.90;;;;;;2082912;28;20091;-68
2022/07/18 04:06:48;;;;;;;4.28;2.05;;;16.10;99.90;;;;;;2084710;28;20057;-68
2022/07/18 04:07:48;;;;;;;4.68;1.98;;;16.10;99.90;;;;;;2083092;28;20020;-68
2022/07/18 04:08:49;;;;;;;3.13;2.08;;;16.10;99.90;;;;;;2083327;28;20018;-68
2022/07/18 04:09:50;;;;;;;3.00;2.00;;;16.10;99.90;;;;;;2084543;28;20029;-68
2022/07/18 04:10:51;;;;;;;4.90;2.33;;;16.10;99.90;;;;;;2086801;28;20021;-68
2022/07/18 04:11:51;;;;;;;3.33;2.53;;;16.10;99.90;;;;;;2086456;28;20021;-68
2022/07/18 04:12:54;;;;;;;3.42;2.05;;;16.20;99.90;;;;;;2086835;28;20060;-68
2022/07/18 04:13:56;;;;;;;2.42;2.00;;;16.20;99.90;;;;;;2082824;28;20049;-68
2022/07/18 04:14:57;;;;;;;3.25;2.42;;;16.20;99.90;;;;;;2087697;28;20021;-68
2022/07/18 04:15:58;;;;;;;3.47;2.53;;;16.30;99.90;;;;;;2086929;28;20484;-68
2022/07/18 04:16:58;;;;;;;3.38;2.17;;;16.30;99.90;;;;;;2084847;28;20096;-68
2022/07/18 04:17:59;;;;;;;3.78;2.53;;;16.30;99.90;;;;;;2081911;28;20057;-68
2022/07/18 04:19:00;;;;;;;2.97;2.53;;;16.30;99.90;;;;;;2085039;28;20017;-68
2022/07/18 04:20:00;;;;;;;3.60;2.28;;;16.30;99.90;;;;;;2084571;28;20029;-68
2022/07/18 04:21:01;;;;;;;2.58;2.10;;;16.40;99.90;;;;;;2084718;28;20042;-68
2022/07/18 04:22:02;;;;;;;3.08;2.30;;;16.40;99.90;;;;;;2085015;28;20025;-68
2022/07/18 04:23:05;;;;;;;3.83;2.20;;;16.40;99.90;;;;;;2083753;28;20021;-68
2022/07/18 04:24:06;;;;;;;4.72;2.22;;;16.40;99.90;;;;;;2084330;28;20056;-68
2022/07/18 04:25:07;;;;;;;5.88;2.30;;;16.40;99.90;;;;;;2085383;28;20496;-68
2022/07/18 04:26:07;;;;;;;3.67;1.98;;;16.40;99.90;;;;;;2084085;28;20051;-68
2022/07/18 04:27:08;;;;;;;3.58;1.90;;;16.40;99.90;;;;;;2085499;28;20036;-68
2022/07/18 04:28:11;;;;;;;4.82;2.20;;;16.40;99.90;;;;;;2085637;28;20734;-68
2022/07/18 04:29:11;;;;;;;3.60;2.22;;;16.40;99.90;;;;;;2087040;28;20134;-68
2022/07/18 04:30:14;;;;;;;3.22;2.00;;;16.40;99.90;;;;;;2086254;28;20123;-68
2022/07/18 04:31:15;;;;;;;2.90;2.20;;;16.40;99.90;;;;;;2085010;28;20025;-68
2022/07/18 04:32:15;;;;;;;6.28;2.45;;;16.50;99.90;;;;;;2085661;28;20102;-68
2022/07/18 04:33:16;;;;;;;5.63;2.72;;;16.50;99.90;;;;;;2083759;28;20029;-68
2022/07/18 04:34:17;;;;;;;2.95;1.92;;;16.70;99.90;;;;;;2082858;28;20527;-68
2022/07/18 04:35:17;;;;;;;2.80;2.20;;;16.80;99.90;;;;;;2082964;28;20511;-68
2022/07/18 04:36:18;;;;;;;3.53;2.50;;;16.90;99.90;;;;;;2083393;28;20025;-68
2022/07/18 04:37:18;;;;;;;2.15;1.92;;;17.10;99.90;;;;;;2082060;28;20032;-68
2022/07/18 04:38:19;;;;;;;2.20;2.00;;;17.20;99.90;;;;;;2083988;28;20077;-68
2022/07/18 04:39:20;;;;;;;4.60;2.67;;;17.40;99.90;;;;;;2085499;28;20049;-68
2022/07/18 04:40:20;;;;;;;3.97;2.10;;;17.50;99.90;;;;;;2085976;28;20427;-68
2022/07/18 04:41:24;;;;;;;3.80;2.20;;;17.50;99.90;;;;;;2085286;28;20032;-68
2022/07/18 04:42:25;;;;;;;4.22;2.03;;;17.50;99.90;;;;;;2084503;28;20081;-68
2022/07/18 04:43:26;;;;;;;4.38;2.45;;;17.50;99.90;;;;;;2084907;28;20470;-69
2022/07/18 04:44:26;;;;;;;4.22;2.45;;;17.60;99.90;;;;;;2084507;28;20037;-68
2022/07/18 04:45:27;;;;;;;4.25;2.17;;;17.50;99.90;;;;;;2084297;28;20072;-68
2022/07/18 04:46:27;;;;;;;3.78;2.00;;;17.50;99.90;;;;;;2085505;28;20499;-68
2022/07/18 04:47:28;;;;;;;3.22;2.00;;;17.50;99.90;;;;;;2085397;28;20017;-68
2022/07/18 04:48:30;;;;;;;3.53;2.10;;;17.60;99.90;;;;;;2083790;28;20113;-68
2022/07/18 04:49:30;;;;;;;2.13;1.92;;;17.60;99.90;;;;;;2084484;28;20025;-68
2022/07/18 04:50:31;;;;;;;4.03;2.28;;;17.60;99.90;;;;;;2084196;28;20072;-68
2022/07/18 04:51:32;;;;;;;3.00;1.77;;;17.60;99.90;;;;;;2082668;28;20026;-68
2022/07/18 04:52:42;;;;;;;5.03;2.33;;;17.60;99.90;;;;;;2085231;28;20028;-68
2022/07/18 04:53:42;;;;;;;2.40;1.75;;;17.60;99.90;;;;;;2084446;28;20131;-68
2022/07/18 04:54:43;;;;;;;4.45;1.67;;;17.60;99.90;;;;;;2087669;28;20037;-68
2022/07/18 04:55:43;;;;;;;3.85;2.05;;;17.70;99.90;;;;;;2085313;28;20025;-68
2022/07/18 04:56:44;;;;;;;8.15;2.40;;;17.80;99.90;;;;;;2086930;28;20025;-68
2022/07/18 04:57:45;;;;;;;4.45;2.10;;;17.80;99.90;;;;;;2086378;28;20029;-68
2022/07/18 04:58:45;;;;;;;4.68;2.20;;;17.90;99.90;;;;;;2083550;28;20032;-68
2022/07/18 04:59:46;;;;;;;5.22;2.30;;;17.90;99.90;;;;;;2084354;28;20034;-68
2022/07/18 05:00:47;;;;;;;6.13;2.20;;;17.90;99.90;;;;;;2084675;28;20116;-68
2022/07/18 05:01:47;;;;;;;4.50;1.63;;;18.00;99.90;;;;;;2084122;28;20100;-68
2022/07/18 05:02:50;;;;;;;3.30;1.63;;;18.00;99.90;;;;;;2086144;28;20508;-68
2022/07/18 05:03:51;;;;;;;2.88;1.77;;;18.10;99.90;;;;;;2083766;28;20029;-68
2022/07/18 05:04:51;;;;;;;7.07;1.90;;;18.20;99.90;;;;;;2082484;28;20676;-68
2022/07/18 05:05:52;;;;;;;4.45;2.17;;;18.20;99.90;;;;;;2083210;28;20088;-68
2022/07/18 05:06:52;;;;;;;3.03;1.88;;;18.30;99.90;;;;;;2082216;28;20043;-68
2022/07/18 05:07:54;;;;;;;5.22;1.70;;;18.40;99.90;;;;;;2080697;28;20564;-68
2022/07/18 05:08:54;;;;;;;3.10;1.92;;;18.50;99.90;;;;;;2086236;28;20025;-68
2022/07/18 05:09:55;;;;;;;4.43;2.10;;;18.60;99.90;;;;;;2086125;28;20075;-68
2022/07/18 05:10:56;;;;;;;3.42;1.88;;;18.70;99.90;;;;;;2084202;28;20017;-68
2022/07/18 05:11:56;;;;;;;3.75;2.13;;;18.80;99.90;;;;;;2084279;28;20025;-68
2022/07/18 05:12:57;;;;;;;3.67;1.90;;;18.90;99.90;;;;;;2083029;28;20067;-68
2022/07/18 05:13:58;;;;;;;7.35;2.17;;;18.90;99.90;;;;;;2082563;28;20026;-68
2022/07/18 05:14:59;;;;;;;3.38;1.70;;;19.00;99.90;;;;;;2083591;28;20045;-68
2022/07/18 05:15:59;;;;;;;5.03;2.17;;;19.10;99.90;;;;;;2083073;28;20461;-68
2022/07/18 05:17:00;;;;;;;2.60;1.98;;;19.20;99.90;;;;;;2085636;28;20032;-68
2022/07/18 05:18:00;;;;;;;7.55;2.10;;;19.20;99.90;;;;;;2086079;28;20091;-68
2022/07/18 05:19:01;;;;;;;4.10;2.30;;;19.30;99.90;;;;;;2083574;28;20428;-68
2022/07/18 05:20:03;;;;;;;6.25;2.13;;;19.40;99.90;;;;;;2086128;28;20028;-68
2022/07/18 05:21:04;;;;;;;4.28;1.70;;;19.50;99.90;;;;;;2085307;28;20032;-68
2022/07/18 05:22:04;;;;;;;2.78;1.85;;;19.50;99.90;;;;;;2085666;28;20051;-68